Flight Track Log - Related Links

Times and Time Zones

All times are in EDT time to prevent confusion due to time zone crossing. See the SLI2164 flight status page for this flight to view local times or setup timezone preferences in your user account.

Time Position Orientation Groundspeed Altitude Reporting Facility
EDT Latitude Longitude Course Direction KTS MPH feet Rate Location/Type
Sun 02:58:08 PM 32.0236 -114.8786 333° Northwest 384 442 36,000  Level Los Angeles Center
Sun 02:59:10 PM 32.1361 -114.9458 333° Northwest 378 435 36,000  Level Los Angeles Center
Sun 03:00:12 PM 32.2286 -115.0008 333° Northwest 374 430 36,000  Level Los Angeles Center
Sun 03:01:14 PM 32.3219 -115.0550 334° Northwest 373 429 36,000  Level Los Angeles Center
Sun 03:02:16 PM 32.3869 -115.1553 308° West 392 451 36,000  Level Los Angeles Center
Sun 03:03:18 PM 32.4544 -115.2831 302° West 405 466 36,000  Level Los Angeles Center
Sun 03:04:20 PM 32.5167 -115.4008 302° West 421 484 36,000  Level Los Angeles Center
Sun 03:05:23 PM 32.5811 -115.5214 302° West 431 496 36,000  Level Los Angeles Center
Sun 03:06:25 PM 32.6467 -115.6417 303° West 434 499 36,000  Level Los Angeles Center
Sun 03:07:27 PM 32.7100 -115.7633 302° West 434 499 36,000  Level Los Angeles Center
Sun 03:08:29 PM 32.7867 -115.9081 302° West 433 498 36,000 -774 Level Los Angeles Center
Sun 03:09:31 PM 32.8489 -116.0256 302° West 423 487 34,400 -1,984 Descending Los Angeles Center
Sun 03:10:33 PM 32.9125 -116.1461 302° West 432 497 31,900 -2,323 Descending Los Angeles Center
Sun 03:11:35 PM 32.9736 -116.2639 302° West 438 504 29,600 -2,565 Descending Los Angeles Center
Sun 03:12:37 PM 33.0497 -116.4114 302° West 439 505 26,600 -2,565 Descending Los Angeles Center
Sun 03:13:39 PM 33.1136 -116.5336 302° West 438 504 24,300 -1,258 Descending Los Angeles Center
Sun 03:14:41 PM 33.1508 -116.6653 289° West 445 512 24,000 -144 Descending Los Angeles Center
Sun 03:15:44 PM 33.1675 -116.8056 278° West 436 502 24,000 -864 Level Los Angeles Center
Sun 03:16:46 PM 33.1842 -116.9442 278° West 428 493 22,200 -2,371 Descending Los Angeles Center
Sun 03:17:48 PM 33.2036 -117.1069 278° West 417 480 19,100 -3,048 Descending Los Angeles Center
Sun 03:18:50 PM 33.2183 -117.2378 278° West 393 452 15,900 -3,182 Descending Los Angeles Center
Sun 03:20:00 PM 33.2333 -117.3833 277° West 422 486 12,100 -2,354 Descending Southern California TRACON
Sun 03:21:00 PM 33.2500 -117.5000 280° West 315 362 10,800 -1,050 Descending Southern California TRACON
Sun 03:22:00 PM 33.2500 -117.6000 270° West 309 356 10,000 -407 Descending Southern California TRACON
Sun 03:22:58 PM 33.2797 -117.6633 299° West 297 342 10,000  Level Los Angeles Center
Sun 03:24:00 PM 33.3572 -117.7372 321° Northwest 296 341 10,000 -689 Level Los Angeles Center
Sun 03:25:00 PM 33.4167 -117.8000 319° Northwest 296 341 8,600 -1,000 Descending Southern California TRACON
Sun 03:26:00 PM 33.4833 -117.8667 320° Northwest 279 321 8,000 -550 Descending Southern California TRACON
Sun 03:27:00 PM 33.5500 -117.9167 328° Northwest 282 325 7,500 -496 Descending Southern California TRACON
Sun 03:28:01 PM 33.6000 -117.9833 312° West 273 314 7,000 -248 Descending Southern California TRACON
Sun 03:29:01 PM 33.6667 -118.0167 337° Northwest 280 322 7,000  Level Southern California TRACON
Sun 03:30:01 PM 33.7500 -118.0500 342° North 276 318 7,000  Level Southern California TRACON
Sun 03:31:01 PM 33.8167 -118.0667 348° North 306 352 7,000 -248 Level Southern California TRACON
Sun 03:32:02 PM 33.9000 -118.0667 360° North 255 293 6,500 -793 Descending Southern California TRACON
Sun 03:33:02 PM 33.9667 -118.0833 348° North 251 289 5,400 -1,250 Descending Southern California TRACON
Sun 03:34:02 PM 33.9833 -118.1500 287° West 243 280 4,000 -1,367 Descending Southern California TRACON
Sun 03:34:21 PM 33.9750 -118.1628 232° Southwest 245 282 3,600 -1,098 Descending Los Angeles Center
Sun 03:35:24 PM 33.9517 -118.2300 247° West 226 260 2,500 -960 Descending Los Angeles Center
Sun 03:36:26 PM 33.9472 -118.2917 265° West 204 235 1,600 -774 Descending Los Angeles Center
Sun 03:37:28 PM 33.9422 -118.3361 262° West 159 183 900 -677 Descending Los Angeles Center
Sun 03:38:30 PM 33.9392 -118.3789 265° West 141 162 200 -677 Descending Los Angeles Center
Sun 03:40:00 PM 33.9333 -118.4000 296° West  Level FlightAware Approximate

Login

Don't have an account? Register now (free) for customized features, flight alerts, and more!